createdAt,value
2023-03-20T00:02:54.073Z,9.00
2023-03-20T00:05:58.742Z,8.27
2023-03-20T00:09:07.016Z,8.23
2023-03-20T00:12:15.667Z,8.80
2023-03-20T00:15:24.250Z,9.52
2023-03-20T00:18:29.046Z,8.45
2023-03-20T00:21:34.109Z,9.88
2023-03-20T00:24:37.398Z,9.38
2023-03-20T00:27:40.721Z,9.27
2023-03-20T00:30:44.216Z,9.55
2023-03-20T00:33:47.762Z,8.85
2023-03-20T00:36:52.580Z,8.98
2023-03-20T00:39:55.919Z,9.85
2023-03-20T00:43:01.043Z,9.30
2023-03-20T00:46:06.862Z,9.40
2023-03-20T00:49:11.996Z,9.57
2023-03-20T00:52:17.735Z,10.18
2023-03-20T00:55:22.136Z,10.05
2023-03-20T00:58:27.026Z,9.68
2023-03-20T01:01:30.940Z,10.65
2023-03-20T01:04:37.212Z,9.65
2023-03-20T01:07:42.463Z,8.82
2023-03-20T01:10:46.565Z,10.60
2023-03-20T01:13:50.632Z,10.32
2023-03-20T01:16:54.073Z,9.63
2023-03-20T01:19:57.498Z,9.38
2023-03-20T01:23:02.188Z,11.02
2023-03-20T01:26:06.071Z,10.45
2023-03-20T01:29:18.025Z,10.55
2023-03-20T01:32:21.691Z,11.18
2023-03-20T01:35:28.936Z,11.82
2023-03-20T01:38:38.102Z,11.00
2023-03-20T01:41:42.283Z,12.13
2023-03-20T01:44:46.708Z,12.07
2023-03-20T01:47:50.042Z,12.40
2023-03-20T01:50:55.729Z,11.50
2023-03-20T01:54:06.600Z,11.88
2023-03-20T01:57:13.107Z,11.73
2023-03-20T02:00:17.833Z,10.73
2023-03-20T02:03:21.514Z,10.68
2023-03-20T02:06:48.643Z,10.40
2023-03-20T02:10:19.966Z,11.13
2023-03-20T02:13:41.476Z,9.43
2023-03-20T02:16:45.071Z,10.05
2023-03-20T02:20:13.124Z,9.27
2023-03-20T02:23:32.476Z,9.60
2023-03-20T02:26:53.364Z,9.82
2023-03-20T02:30:12.717Z,9.63
2023-03-20T02:33:33.409Z,8.13
2023-03-20T02:36:57.576Z,9.05
2023-03-20T02:40:06.927Z,10.00
2023-03-20T02:43:14.541Z,9.88
2023-03-20T02:46:26.090Z,8.80
2023-03-20T02:49:36.776Z,8.65
2023-03-20T02:52:44.339Z,9.45
2023-03-20T02:55:56.330Z,9.95
2023-03-20T02:59:04.505Z,9.88
2023-03-20T03:02:09.972Z,9.25
2023-03-20T03:05:15.579Z,9.30
2023-03-20T03:08:20.560Z,8.52
2023-03-20T03:11:25.371Z,7.72
2023-03-20T03:14:33.774Z,6.22
2023-03-20T03:17:38.941Z,5.93
2023-03-20T03:20:43.930Z,5.38
2023-03-20T03:23:49.145Z,5.80
2023-03-20T03:26:54.448Z,5.60
2023-03-20T03:29:58.980Z,5.63
2023-03-20T03:33:10.992Z,6.10
2023-03-20T03:36:19.349Z,6.10
2023-03-20T03:39:27.115Z,6.80
2023-03-20T03:42:34.298Z,6.13
2023-03-20T03:45:40.572Z,5.25
2023-03-20T03:48:45.966Z,5.70
2023-03-20T03:51:51.082Z,7.30
2023-03-20T03:54:57.090Z,6.38
2023-03-20T03:58:09.774Z,6.90
2023-03-20T04:01:14.388Z,6.35
2023-03-20T04:04:20.434Z,6.68
2023-03-20T04:07:27.452Z,6.68
2023-03-20T04:10:31.489Z,7.28
2023-03-20T04:13:36.131Z,6.97
2023-03-20T04:16:39.893Z,6.80
2023-03-20T04:19:43.530Z,6.43
2023-03-20T04:22:46.915Z,6.53
2023-03-20T04:25:52.158Z,6.32
2023-03-20T04:28:56.781Z,5.80
2023-03-20T04:32:32.671Z,5.38
2023-03-20T04:35:47.047Z,5.90
2023-03-20T04:38:52.172Z,6.07
2023-03-20T04:41:56.598Z,5.78
2023-03-20T04:45:01.357Z,6.60
2023-03-20T04:48:06.769Z,5.45
2023-03-20T04:51:11.606Z,5.85
2023-03-20T04:54:36.073Z,5.82
2023-03-20T04:57:39.688Z,5.93
2023-03-20T05:00:47.353Z,5.35
2023-03-20T05:03:51.812Z,5.07
2023-03-20T05:06:55.354Z,4.88
2023-03-20T05:10:02.665Z,6.03
2023-03-20T05:13:09.685Z,4.65
2023-03-20T05:16:37.358Z,5.18
2023-03-20T05:20:16.690Z,4.57
2023-03-20T05:23:46.020Z,4.00
2023-03-20T05:26:58.897Z,4.10
2023-03-20T05:30:31.392Z,3.65
2023-03-20T05:34:05.723Z,3.85
2023-03-20T05:37:23.702Z,3.85
2023-03-20T05:40:59.323Z,2.95
2023-03-20T05:44:28.982Z,3.33
2023-03-20T05:47:55.712Z,3.72
2023-03-20T05:51:19.040Z,3.55
2023-03-20T05:54:31.604Z,4.70
2023-03-20T05:57:53.654Z,4.82
2023-03-20T06:01:16.296Z,5.00
2023-03-20T06:04:28.883Z,4.45
2023-03-20T06:07:50.296Z,4.63
2023-03-20T06:10:53.602Z,5.13
2023-03-20T06:13:58.400Z,5.28
2023-03-20T06:17:10.733Z,6.07
2023-03-20T06:20:14.899Z,6.13
2023-03-20T06:23:19.748Z,5.68
2023-03-20T06:26:23.586Z,6.45
2023-03-20T06:29:36.742Z,6.15
2023-03-20T06:32:50.790Z,6.35
2023-03-20T06:35:55.976Z,6.18
2023-03-20T06:39:00.978Z,6.10
2023-03-20T06:42:06.190Z,6.45
2023-03-20T06:45:11.166Z,6.35
2023-03-20T06:48:29.854Z,6.40
2023-03-20T06:51:33.570Z,6.30
2023-03-20T06:54:38.887Z,5.90
2023-03-20T06:57:42.242Z,4.80
2023-03-20T07:00:46.500Z,5.05
2023-03-20T07:03:50.378Z,3.88
2023-03-20T07:06:59.441Z,4.22
2023-03-20T07:10:04.377Z,4.30
2023-03-20T07:13:07.843Z,3.88
2023-03-20T07:16:13.626Z,3.95
2023-03-20T07:19:18.612Z,3.08
2023-03-20T07:22:27.414Z,3.50
2023-03-20T07:25:46.066Z,3.47
2023-03-20T07:28:52.811Z,3.28
2023-03-20T07:32:00.993Z,3.40
2023-03-20T07:35:10.182Z,3.03
2023-03-20T07:38:17.356Z,3.25
2023-03-20T07:41:35.749Z,2.83
2023-03-20T07:44:42.173Z,3.08
2023-03-20T07:47:48.598Z,2.45
2023-03-20T07:50:52.608Z,3.38
2023-03-20T07:53:56.231Z,2.30
2023-03-20T07:57:01.460Z,2.33
2023-03-20T08:00:05.329Z,2.85
2023-03-20T08:03:15.809Z,2.38
2023-03-20T08:06:19.461Z,1.98
2023-03-20T08:09:22.904Z,1.77
2023-03-20T08:12:31.403Z,1.80
2023-03-20T08:15:35.268Z,1.80
2023-03-20T08:18:39.023Z,1.95
2023-03-20T08:21:42.545Z,1.85
2023-03-20T08:24:47.088Z,1.95
2023-03-20T08:27:51.953Z,1.98
2023-03-20T08:30:55.553Z,1.88
2023-03-20T08:33:59.524Z,1.70
2023-03-20T08:37:04.866Z,1.85
2023-03-20T08:40:08.886Z,2.10
2023-03-20T08:43:16.627Z,2.00
2023-03-20T08:46:20.268Z,1.73
2023-03-20T08:49:24.627Z,1.73
2023-03-20T08:52:28.671Z,1.63
2023-03-20T08:55:32.079Z,1.67
2023-03-20T08:58:37.676Z,1.75
2023-03-20T09:01:49.174Z,1.27
2023-03-20T09:04:53.471Z,1.40
2023-03-20T09:07:57.084Z,1.75
2023-03-20T09:11:00.543Z,1.48
2023-03-20T09:14:07.424Z,1.73
2023-03-20T09:17:11.090Z,1.38
2023-03-20T09:20:14.600Z,2.00
2023-03-20T09:23:18.496Z,1.92
2023-03-20T09:29:58.612Z,1.83
2023-03-20T09:33:02.241Z,1.80
2023-03-20T09:36:06.280Z,1.85
2023-03-20T09:39:09.743Z,1.90
2023-03-20T09:42:20.260Z,2.05
2023-03-20T09:45:29.898Z,2.40
2023-03-20T09:48:36.992Z,2.20
2023-03-20T09:51:47.479Z,2.15
2023-03-20T09:54:54.960Z,2.42
2023-03-20T09:57:59.588Z,2.25
2023-03-20T10:01:06.597Z,1.90
2023-03-20T10:04:10.850Z,2.00
2023-03-20T10:07:16.901Z,2.40
2023-03-20T10:10:22.225Z,1.90
2023-03-20T10:13:36.457Z,1.77
2023-03-20T10:16:50.700Z,2.30
2023-03-20T10:20:12.152Z,2.33
2023-03-20T10:23:22.570Z,2.13
2023-03-20T10:26:26.030Z,2.08
2023-03-20T10:29:35.180Z,2.45
2023-03-20T10:32:43.591Z,2.47
2023-03-20T10:35:51.371Z,2.47
2023-03-20T10:38:59.362Z,2.35
2023-03-20T10:42:04.825Z,2.17
2023-03-20T10:45:12.385Z,2.80
2023-03-20T10:48:21.986Z,2.22
2023-03-20T10:51:35.414Z,2.28
2023-03-20T10:54:41.048Z,3.03
2023-03-20T10:57:48.834Z,2.55
2023-03-20T11:00:52.735Z,3.05
2023-03-20T11:03:59.238Z,3.10
2023-03-20T11:07:03.994Z,3.10
2023-03-20T11:10:12.122Z,3.53
2023-03-20T11:13:19.274Z,2.45
2023-03-20T11:16:24.424Z,3.30
2023-03-20T11:19:29.286Z,2.60
2023-03-20T11:22:32.813Z,2.65
2023-03-20T11:25:38.716Z,2.30
2023-03-20T11:28:47.199Z,2.83
2023-03-20T11:31:54.021Z,2.40
2023-03-20T11:35:11.057Z,2.58
2023-03-20T11:38:16.438Z,3.03
2023-03-20T11:41:21.078Z,2.53
2023-03-20T11:44:26.235Z,2.65
2023-03-20T11:47:30.513Z,2.50
2023-03-20T11:50:36.888Z,2.47
2023-03-20T11:53:48.048Z,2.80
2023-03-20T11:56:55.699Z,1.95
2023-03-20T11:59:59.420Z,2.53
2023-03-20T12:03:03.652Z,2.95
2023-03-20T12:06:10.365Z,2.10
2023-03-20T12:09:18.359Z,2.08
2023-03-20T12:12:26.206Z,2.25
2023-03-20T12:15:31.322Z,2.17
2023-03-20T12:18:37.225Z,2.20
2023-03-20T12:21:47.859Z,2.22
2023-03-20T12:24:53.840Z,2.30
2023-03-20T12:28:02.785Z,2.13
2023-03-20T12:31:07.912Z,2.45
2023-03-20T12:34:14.023Z,2.53
2023-03-20T12:37:19.233Z,2.20
2023-03-20T12:40:27.869Z,1.98
2023-03-20T12:43:37.164Z,2.25
2023-03-20T12:46:45.090Z,2.10
2023-03-20T12:49:53.682Z,1.67
2023-03-20T12:53:02.461Z,2.00
2023-03-20T12:56:13.175Z,1.83
2023-03-20T12:59:20.993Z,2.60
2023-03-20T13:02:32.477Z,2.53
2023-03-20T13:05:42.140Z,2.25
2023-03-20T13:08:53.606Z,2.50
2023-03-20T13:12:00.636Z,1.98
2023-03-20T13:15:08.957Z,2.10
2023-03-20T13:18:16.405Z,2.72
2023-03-20T13:21:25.515Z,2.70
2023-03-20T13:24:40.454Z,2.05
2023-03-20T13:27:47.549Z,2.30
2023-03-20T13:30:54.474Z,3.78
2023-03-20T13:34:00.751Z,2.83
2023-03-20T13:37:22.726Z,2.65
2023-03-20T13:40:30.445Z,3.20
2023-03-20T13:43:36.652Z,2.60
2023-03-20T13:46:42.447Z,2.70
2023-03-20T13:49:48.741Z,2.38
2023-03-20T13:53:05.047Z,3.13
2023-03-20T13:56:15.075Z,2.58
2023-03-20T13:59:42.185Z,2.75
2023-03-20T14:02:55.328Z,2.80
2023-03-20T14:05:58.906Z,2.55
2023-03-20T14:09:02.327Z,2.58
2023-03-20T14:12:11.101Z,2.45
2023-03-20T14:15:14.640Z,2.53
2023-03-20T14:18:18.978Z,3.25
2023-03-20T14:21:25.440Z,2.63
2023-03-20T14:24:29.440Z,2.30
2023-03-20T14:27:44.578Z,2.30
2023-03-20T14:30:50.666Z,2.72
2023-03-20T14:34:01.333Z,2.40
2023-03-20T14:37:05.649Z,2.85
2023-03-20T14:40:16.323Z,3.40
2023-03-20T14:43:27.736Z,2.35
2023-03-20T14:46:40.489Z,2.42
2023-03-20T14:49:49.871Z,2.40
2023-03-20T14:52:56.514Z,2.63
2023-03-20T14:56:07.531Z,3.00
2023-03-20T14:59:13.195Z,2.55
2023-03-20T15:02:26.291Z,2.03
2023-03-20T15:05:30.302Z,2.47
2023-03-20T15:08:35.981Z,2.55
2023-03-20T15:11:39.819Z,2.30
2023-03-20T15:14:46.021Z,2.72
2023-03-20T15:17:50.201Z,2.15
2023-03-20T15:20:53.604Z,2.38
2023-03-20T15:23:57.148Z,2.40
2023-03-20T15:27:01.480Z,2.38
2023-03-20T15:30:09.097Z,2.45
2023-03-20T15:33:17.500Z,1.85
2023-03-20T15:36:21.866Z,2.47
2023-03-20T15:39:26.702Z,2.60
2023-03-20T15:42:32.049Z,2.65
2023-03-20T15:45:38.801Z,2.05
2023-03-20T15:48:42.710Z,2.13
2023-03-20T15:51:46.140Z,2.28
2023-03-20T15:54:50.284Z,2.38
2023-03-20T15:57:54.002Z,2.65
2023-03-20T16:00:58.802Z,2.15
2023-03-20T16:04:02.260Z,2.38
2023-03-20T16:07:05.640Z,2.17
2023-03-20T16:10:17.745Z,2.08
2023-03-20T16:13:23.475Z,2.63
2023-03-20T16:16:30.205Z,2.15
2023-03-20T16:19:33.607Z,3.20
2023-03-20T16:22:37.929Z,3.60
2023-03-20T16:25:42.025Z,2.42
2023-03-20T16:28:50.060Z,2.63
2023-03-20T16:31:57.026Z,2.70
2023-03-20T16:35:01.355Z,2.45
2023-03-20T16:38:16.084Z,2.45
2023-03-20T16:41:26.875Z,2.58
2023-03-20T16:44:31.795Z,3.30
2023-03-20T16:47:39.128Z,3.00
2023-03-20T16:50:43.567Z,3.28
2023-03-20T16:53:48.260Z,3.42
2023-03-20T16:56:53.943Z,2.58
2023-03-20T17:00:06.302Z,3.08
2023-03-20T17:03:15.201Z,3.03
2023-03-20T17:06:35.679Z,2.53
2023-03-20T17:09:56.607Z,3.25
2023-03-20T17:13:00.178Z,3.10
2023-03-20T17:16:03.633Z,3.17
2023-03-20T17:19:10.453Z,2.97
2023-03-20T17:22:15.630Z,2.75
2023-03-20T17:25:18.981Z,2.97
2023-03-20T17:28:23.303Z,2.60
2023-03-20T17:31:26.706Z,2.70
2023-03-20T17:34:31.764Z,2.70
2023-03-20T17:37:35.328Z,2.80
2023-03-20T17:40:39.077Z,3.13
2023-03-20T17:43:43.012Z,2.67
2023-03-20T17:46:57.950Z,2.63
2023-03-20T17:50:03.488Z,2.40
2023-03-20T17:53:06.994Z,3.47
2023-03-20T17:56:12.999Z,2.35
2023-03-20T17:59:16.406Z,3.15
2023-03-20T18:02:20.110Z,2.53
2023-03-20T18:05:24.975Z,2.67
2023-03-20T18:08:28.365Z,3.45
2023-03-20T18:11:33.856Z,2.35
2023-03-20T18:14:37.273Z,4.20
2023-03-20T18:17:40.638Z,3.42
2023-03-20T18:20:46.896Z,3.15
2023-03-20T18:23:50.599Z,3.55
2023-03-20T18:26:54.820Z,3.17
2023-03-20T18:29:59.070Z,3.78
2023-03-20T18:33:02.507Z,3.25
2023-03-20T18:36:07.815Z,3.42
2023-03-20T18:39:13.337Z,3.47
2023-03-20T18:42:17.167Z,4.15
2023-03-20T18:45:21.202Z,3.85
2023-03-20T18:48:24.939Z,3.65
2023-03-20T18:51:29.582Z,4.07
2023-03-20T18:54:32.946Z,3.75
2023-03-20T18:57:43.019Z,4.13
2023-03-20T19:00:46.591Z,4.15
2023-03-20T19:03:49.850Z,4.80
2023-03-20T19:06:54.515Z,4.68
2023-03-20T19:09:57.748Z,4.50
2023-03-20T19:13:01.496Z,3.78
2023-03-20T19:16:04.940Z,3.33
2023-03-20T19:19:09.364Z,3.70
2023-03-20T19:22:28.480Z,4.18
2023-03-20T19:25:33.327Z,3.95
2023-03-20T19:28:41.136Z,3.58
2023-03-20T19:31:45.281Z,3.60
2023-03-20T19:35:35.249Z,3.53
2023-03-20T19:38:15.839Z,4.05
2023-03-20T19:41:20.198Z,3.65
2023-03-20T19:44:23.581Z,3.38
2023-03-20T19:47:26.997Z,3.67
2023-03-20T19:50:33.754Z,3.58
2023-03-20T19:53:38.476Z,3.38
2023-03-20T19:56:42.565Z,3.17
2023-03-20T19:59:46.007Z,3.47
2023-03-20T20:02:49.795Z,3.55
2023-03-20T20:05:54.090Z,3.28
2023-03-20T20:08:58.669Z,3.50
2023-03-20T20:12:04.014Z,3.22
2023-03-20T20:15:07.855Z,2.72
2023-03-20T20:18:11.590Z,3.17
2023-03-20T20:24:40.915Z,3.67
2023-03-20T20:27:44.320Z,2.88
2023-03-20T20:30:48.502Z,3.38
2023-03-20T20:34:09.521Z,3.03
2023-03-20T20:40:39.886Z,3.45
2023-03-20T20:44:14.057Z,3.15
2023-03-20T20:47:06.619Z,2.83
2023-03-20T20:50:11.710Z,3.10
2023-03-20T20:53:15.262Z,2.83
2023-03-20T20:56:20.084Z,3.15
2023-03-20T20:59:23.570Z,2.78
2023-03-20T21:02:27.565Z,3.63
2023-03-20T21:05:31.124Z,2.83
2023-03-20T21:08:36.388Z,3.17
2023-03-20T21:11:41.481Z,2.72
2023-03-20T21:14:45.323Z,3.15
2023-03-20T21:17:59.954Z,2.28
2023-03-20T21:21:08.154Z,3.25
2023-03-20T21:24:31.052Z,3.15
2023-03-20T21:27:37.943Z,3.17
2023-03-20T21:31:05.989Z,3.05
2023-03-20T21:34:06.792Z,3.20
2023-03-20T21:40:33.912Z,2.90
2023-03-20T21:43:39.459Z,3.13
2023-03-20T21:47:40.309Z,3.10
2023-03-20T21:57:30.755Z,2.75
2023-03-20T22:01:12.170Z,3.05
2023-03-20T22:04:37.623Z,3.00
2023-03-20T22:07:37.510Z,2.67
2023-03-20T22:11:20.231Z,3.05
2023-03-20T22:14:41.040Z,2.58
2023-03-20T22:17:56.153Z,2.60
2023-03-20T22:21:29.689Z,3.00
2023-03-20T22:31:34.646Z,2.90
2023-03-20T22:34:53.647Z,3.00
2023-03-20T22:38:31.652Z,3.30
2023-03-20T22:44:59.271Z,2.78
2023-03-20T22:47:49.587Z,2.88
2023-03-20T22:50:54.225Z,2.75
2023-03-20T22:53:57.635Z,2.85
2023-03-20T22:57:01.538Z,2.90
2023-03-20T23:00:09.411Z,3.03
2023-03-20T23:03:25.669Z,3.15
2023-03-20T23:06:34.521Z,3.15
2023-03-20T23:09:38.239Z,3.70
2023-03-20T23:12:44.019Z,2.72
2023-03-20T23:15:47.960Z,3.15
2023-03-20T23:18:51.564Z,3.72
2023-03-20T23:21:56.914Z,2.85
2023-03-20T23:25:11.532Z,3.13
2023-03-20T23:28:18.004Z,3.13
2023-03-20T23:31:22.159Z,3.55
2023-03-20T23:34:25.678Z,2.95
2023-03-20T23:37:30.375Z,4.03
2023-03-20T23:40:33.609Z,3.95
2023-03-20T23:43:37.728Z,3.88
2023-03-20T23:46:41.114Z,3.95
2023-03-20T23:49:45.869Z,4.03
2023-03-20T23:53:01.104Z,3.72
2023-03-20T23:56:07.698Z,4.63
2023-03-20T23:59:21.076Z,4.05
